createdAt,value
2023-02-12T00:01:10.022Z,78031.94
2023-02-12T00:03:38.668Z,78046.22
2023-02-12T00:06:07.067Z,78046.22
2023-02-12T00:08:35.322Z,78060.50
2023-02-12T00:11:08.694Z,78044.16
2023-02-12T00:13:38.627Z,78060.50
2023-02-12T00:16:07.842Z,78058.44
2023-02-12T00:18:35.623Z,78066.59
2023-02-12T00:21:04.264Z,78052.31
2023-02-12T00:23:32.441Z,78068.66
2023-02-12T00:26:00.201Z,78068.66
2023-02-12T00:28:28.382Z,78068.66
2023-02-12T00:30:57.632Z,78068.66
2023-02-12T00:33:25.499Z,78064.56
2023-02-12T00:35:57.339Z,78072.72
2023-02-12T00:38:25.283Z,78062.53
2023-02-12T00:40:53.209Z,78062.53
2023-02-12T00:43:21.025Z,78068.66
2023-02-12T00:45:49.245Z,78060.50
2023-02-12T00:48:18.596Z,78064.56
2023-02-12T00:50:46.898Z,78052.31
2023-02-12T00:53:15.157Z,78052.31
2023-02-12T00:55:43.246Z,78060.50
2023-02-12T00:58:11.344Z,78062.53
2023-02-12T01:00:39.764Z,78066.59
2023-02-12T01:03:07.554Z,78058.44
2023-02-12T01:05:37.165Z,78056.41
2023-02-12T01:08:05.881Z,78056.41
2023-02-12T01:10:34.939Z,78056.41
2023-02-12T01:13:02.675Z,78058.44
2023-02-12T01:15:30.453Z,78050.28
2023-02-12T01:17:58.382Z,78044.16
2023-02-12T01:20:27.072Z,78052.31
2023-02-12T01:22:56.179Z,78040.09
2023-02-12T01:25:23.918Z,78036.00
2023-02-12T01:27:54.255Z,78044.16
2023-02-12T01:30:24.185Z,78044.16
2023-02-12T01:32:52.107Z,78044.16
2023-02-12T01:35:19.965Z,78044.16
2023-02-12T01:37:47.758Z,78054.38
2023-02-12T01:40:19.173Z,78062.53
2023-02-12T01:42:47.115Z,78058.44
2023-02-12T01:45:50.246Z,78064.56
2023-02-12T01:48:19.462Z,78074.78
2023-02-12T01:50:49.607Z,78068.66
2023-02-12T01:53:20.374Z,78066.59
2023-02-12T01:55:51.923Z,78060.50
2023-02-12T01:58:20.695Z,78066.59
2023-02-12T02:00:48.554Z,78064.56
2023-02-12T02:03:16.730Z,78064.56
2023-02-12T02:05:52.114Z,78072.72
2023-02-12T02:08:19.907Z,78068.66
2023-02-12T02:10:47.649Z,78072.72
2023-02-12T02:13:34.635Z,78072.72
2023-02-12T02:16:12.173Z,78070.69
2023-02-12T02:18:45.378Z,78072.72
2023-02-12T02:21:58.708Z,78076.81
2023-02-12T02:24:57.377Z,78074.78
2023-02-12T02:27:43.464Z,78082.94
2023-02-12T02:30:29.966Z,78084.97
2023-02-12T02:33:07.930Z,78084.97
2023-02-12T02:35:42.560Z,78089.03
2023-02-12T02:38:22.717Z,78089.03
2023-02-12T02:40:57.444Z,78089.03
2023-02-12T02:43:31.012Z,78080.88
2023-02-12T02:46:06.465Z,78082.94
2023-02-12T02:48:38.654Z,78080.88
2023-02-12T02:51:10.648Z,78082.94
2023-02-12T02:53:43.363Z,78084.97
2023-02-12T02:56:16.866Z,78091.09
2023-02-12T02:58:49.946Z,78097.22
2023-02-12T03:01:24.173Z,78101.28
2023-02-12T03:03:57.669Z,78101.28
2023-02-12T03:06:30.552Z,78105.38
2023-02-12T03:09:02.583Z,78121.69
2023-02-12T03:11:33.194Z,78121.69
2023-02-12T03:14:08.123Z,78129.84
2023-02-12T03:16:42.744Z,78135.97
2023-02-12T03:19:15.953Z,78129.84
2023-02-12T03:21:50.349Z,78125.78
2023-02-12T03:24:23.058Z,78117.59
2023-02-12T03:26:55.689Z,78125.78
2023-02-12T03:29:23.514Z,78142.09
2023-02-12T03:32:04.410Z,78142.09
2023-02-12T03:34:47.123Z,78142.09
2023-02-12T03:37:22.212Z,78138.00
2023-02-12T03:39:58.715Z,78135.97
2023-02-12T03:42:36.410Z,78146.16
2023-02-12T03:45:10.623Z,78152.28
2023-02-12T03:47:47.415Z,78146.16
2023-02-12T03:50:19.044Z,78152.28
2023-02-12T03:52:48.165Z,78158.41
2023-02-12T03:55:17.816Z,78156.38
2023-02-12T03:57:49.669Z,78158.41
2023-02-12T04:00:20.594Z,78158.41
2023-02-12T04:02:50.207Z,78160.44
2023-02-12T04:05:21.260Z,78166.56
2023-02-12T04:07:50.005Z,78170.66
2023-02-12T04:10:19.038Z,78174.72
2023-02-12T04:12:55.566Z,78162.50
2023-02-12T04:15:44.867Z,78162.50
2023-02-12T04:18:20.149Z,78166.56
2023-02-12T04:20:59.045Z,78174.72
2023-02-12T04:23:41.689Z,78174.72
2023-02-12T04:26:18.648Z,78178.81
2023-02-12T04:28:53.403Z,78180.84
2023-02-12T04:31:30.678Z,78186.97
2023-02-12T04:34:09.482Z,78180.84
2023-02-12T04:36:42.945Z,78178.81
2023-02-12T04:39:17.183Z,78182.88
2023-02-12T04:41:45.072Z,78174.72
2023-02-12T04:44:17.916Z,78180.84
2023-02-12T04:46:45.737Z,78174.72
2023-02-12T04:49:20.371Z,78186.97
2023-02-12T04:51:49.021Z,78186.97
2023-02-12T04:54:18.563Z,78170.66
2023-02-12T04:56:46.813Z,78174.72
2023-02-12T04:59:15.177Z,78178.81
2023-02-12T05:01:44.270Z,78189.00
2023-02-12T05:04:14.635Z,78199.22
2023-02-12T05:06:44.862Z,78191.03
2023-02-12T05:09:16.030Z,78191.03
2023-02-12T05:11:44.189Z,78191.03
2023-02-12T05:14:12.629Z,78191.03
2023-02-12T05:16:40.386Z,78207.38
2023-02-12T05:19:09.520Z,78193.09
2023-02-12T05:21:37.666Z,78193.09
2023-02-12T05:24:07.339Z,78193.09
2023-02-12T05:26:35.681Z,78195.13
2023-02-12T05:29:04.397Z,78199.22
2023-02-12T05:31:32.237Z,78199.22
2023-02-12T05:34:00.211Z,78199.22
2023-02-12T05:36:28.726Z,78203.28
2023-02-12T05:38:59.347Z,78195.13
2023-02-12T05:41:29.053Z,78199.22
2023-02-12T05:43:56.791Z,78201.25
2023-02-12T05:46:24.564Z,78211.44
2023-02-12T05:48:52.404Z,78207.38
2023-02-12T05:51:23.028Z,78211.44
2023-02-12T05:53:52.209Z,78213.50
2023-02-12T05:56:21.605Z,78213.50
2023-02-12T05:58:55.832Z,78215.53
2023-02-12T06:01:27.463Z,78217.56
2023-02-12T06:03:55.720Z,78205.31
2023-02-12T06:06:23.534Z,78207.38
2023-02-12T06:08:51.943Z,78207.38
2023-02-12T06:11:20.855Z,78215.53
2023-02-12T06:13:50.545Z,78215.53
2023-02-12T06:16:20.565Z,78217.56
2023-02-12T06:18:48.484Z,78233.88
2023-02-12T06:21:17.096Z,78240.00
2023-02-12T06:23:44.922Z,78242.06
2023-02-12T06:26:13.173Z,78242.06
2023-02-12T06:28:40.956Z,78244.09
2023-02-12T06:31:20.099Z,78244.09
2023-02-12T06:33:47.940Z,78240.00
2023-02-12T06:36:15.814Z,78231.84
2023-02-12T06:38:43.702Z,78244.09
2023-02-12T06:41:11.603Z,78248.16
2023-02-12T06:43:39.713Z,78244.09
2023-02-12T06:46:08.128Z,78248.16
2023-02-12T06:48:37.745Z,78248.16
2023-02-12T06:51:07.528Z,78252.25
2023-02-12T06:53:36.164Z,78256.31
2023-02-12T06:56:05.543Z,78244.09
2023-02-12T06:58:33.787Z,78256.31
2023-02-12T07:01:10.726Z,78260.41
2023-02-12T07:03:40.546Z,78264.50
2023-02-12T07:06:08.923Z,78256.31
2023-02-12T07:08:37.041Z,78260.41
2023-02-12T07:11:05.092Z,78260.41
2023-02-12T07:13:34.813Z,78260.41
2023-02-12T07:16:05.675Z,78268.56
2023-02-12T07:18:34.633Z,78268.56
2023-02-12T07:21:04.760Z,78268.56
2023-02-12T07:23:32.565Z,78268.56
2023-02-12T07:26:02.060Z,78268.56
2023-02-12T07:28:33.578Z,78268.56
2023-02-12T07:31:01.731Z,78272.66
2023-02-12T07:33:29.471Z,78268.56
2023-02-12T07:36:01.235Z,78272.66
2023-02-12T07:38:31.155Z,78268.56
2023-02-12T07:41:10.411Z,78272.66
2023-02-12T07:43:38.862Z,78278.78
2023-02-12T07:46:08.652Z,78278.78
2023-02-12T07:48:36.483Z,78276.72
2023-02-12T07:51:06.835Z,78278.78
2023-02-12T07:53:36.412Z,78276.72
2023-02-12T07:56:11.960Z,78274.69
2023-02-12T07:58:41.875Z,78278.78
2023-02-12T08:01:19.386Z,78270.59
2023-02-12T08:03:48.395Z,78268.56
2023-02-12T08:06:18.979Z,78260.41
2023-02-12T08:08:48.587Z,78266.53
2023-02-12T08:11:16.707Z,78266.53
2023-02-12T08:13:44.653Z,78260.41
2023-02-12T08:16:14.687Z,78264.50
2023-02-12T08:18:42.709Z,78260.41
2023-02-12T08:21:12.659Z,78262.44
2023-02-12T08:23:40.577Z,78256.31
2023-02-12T08:26:12.196Z,78248.16
2023-02-12T08:28:42.366Z,78252.25
2023-02-12T08:31:12.391Z,78252.25
2023-02-12T08:33:40.193Z,78248.16
2023-02-12T08:36:11.393Z,78246.13
2023-02-12T08:38:40.143Z,78246.13
2023-02-12T08:41:11.036Z,78244.09
2023-02-12T08:43:41.499Z,78240.00
2023-02-12T08:46:11.739Z,78244.09
2023-02-12T08:48:40.411Z,78246.13
2023-02-12T08:51:10.034Z,78248.16
2023-02-12T08:53:38.890Z,78248.16
2023-02-12T08:56:08.158Z,78250.22
2023-02-12T08:58:38.020Z,78254.28
2023-02-12T09:01:10.358Z,78248.16
2023-02-12T09:03:38.419Z,78244.09
2023-02-12T09:06:08.053Z,78235.94
2023-02-12T09:08:36.802Z,78225.72
2023-02-12T09:11:06.128Z,78221.66
2023-02-12T09:13:33.951Z,78219.59
2023-02-12T09:16:04.595Z,78221.66
2023-02-12T09:18:32.752Z,78229.81
2023-02-12T09:21:03.440Z,78223.69
2023-02-12T09:23:31.607Z,78223.69
2023-02-12T09:25:59.401Z,78223.69
2023-02-12T09:28:27.372Z,78221.66
2023-02-12T09:30:55.345Z,78221.66
2023-02-12T09:33:25.316Z,78219.59
2023-02-12T09:35:53.356Z,78207.38
2023-02-12T09:38:21.178Z,78207.38
2023-02-12T09:41:03.031Z,78203.28
2023-02-12T09:43:38.019Z,78205.31
2023-02-12T09:46:16.925Z,78215.53
2023-02-12T09:48:56.633Z,78215.53
2023-02-12T09:51:26.639Z,78215.53
2023-02-12T09:54:03.885Z,78215.53
2023-02-12T09:56:32.161Z,78213.50
2023-02-12T09:59:02.981Z,78215.53
2023-02-12T10:01:31.278Z,78191.03
2023-02-12T10:04:01.268Z,78184.94
2023-02-12T10:06:31.285Z,78186.97
2023-02-12T10:09:08.441Z,78178.81
2023-02-12T10:11:50.420Z,78182.88
2023-02-12T10:14:32.863Z,78178.81
2023-02-12T10:17:08.924Z,78170.66
2023-02-12T10:20:01.368Z,78170.66
2023-02-12T10:22:55.877Z,78166.56
2023-02-12T10:25:31.264Z,78154.31
2023-02-12T10:28:03.149Z,78168.59
2023-02-12T10:30:38.518Z,78154.31
2023-02-12T10:33:12.945Z,78142.09
2023-02-12T10:35:45.767Z,78144.13
2023-02-12T10:38:19.016Z,78150.25
2023-02-12T10:40:47.456Z,78138.00
2023-02-12T10:43:15.446Z,78135.97
2023-02-12T10:45:44.867Z,78125.78
2023-02-12T10:48:19.705Z,78123.72
2023-02-12T10:50:58.721Z,78105.38
2023-02-12T10:53:32.760Z,78097.22
2023-02-12T10:56:17.351Z,78101.28
2023-02-12T10:58:54.925Z,78107.41
2023-02-12T11:01:27.310Z,78101.28
2023-02-12T11:03:55.878Z,78097.22
2023-02-12T11:06:27.947Z,78101.28
2023-02-12T11:08:55.940Z,78117.59
2023-02-12T11:11:26.479Z,78117.59
2023-02-12T11:14:00.964Z,78109.44
2023-02-12T11:16:32.094Z,78113.53
2023-02-12T11:19:02.314Z,78109.44
2023-02-12T11:21:32.214Z,78111.50
2023-02-12T11:24:31.679Z,78115.56
2023-02-12T11:27:20.755Z,78113.53
2023-02-12T11:29:49.720Z,78119.66
2023-02-12T11:32:19.960Z,78115.56
2023-02-12T11:35:06.642Z,78113.53
2023-02-12T11:37:41.190Z,78109.44
2023-02-12T11:40:18.921Z,78115.56
2023-02-12T11:42:50.906Z,78109.44
2023-02-12T11:45:20.792Z,78097.22
2023-02-12T11:47:49.360Z,78097.22
2023-02-12T11:50:26.077Z,78082.94
2023-02-12T11:52:59.009Z,78080.88
2023-02-12T11:55:32.356Z,78080.88
2023-02-12T11:58:04.717Z,78062.53
2023-02-12T12:00:37.845Z,78054.38
2023-02-12T12:03:13.105Z,78056.41
2023-02-12T12:05:46.384Z,78054.38
2023-02-12T12:08:22.907Z,78052.31
2023-02-12T12:10:56.399Z,78042.13
2023-02-12T12:13:30.402Z,78054.38
2023-02-12T12:16:25.358Z,78054.38
2023-02-12T12:19:16.260Z,78064.56
2023-02-12T12:21:49.714Z,78060.50
2023-02-12T12:24:25.923Z,78052.31
2023-02-12T12:27:00.839Z,78038.06
2023-02-12T12:29:42.246Z,78040.09
2023-02-12T12:32:14.092Z,78025.81
2023-02-12T12:34:42.208Z,78027.84
2023-02-12T12:37:26.957Z,78023.78
2023-02-12T12:40:12.718Z,78029.88
2023-02-12T12:43:03.391Z,78029.88
2023-02-12T12:46:00.763Z,78031.94
2023-02-12T12:48:41.293Z,78040.09
2023-02-12T12:51:26.167Z,78027.84
2023-02-12T12:54:12.365Z,78027.84
2023-02-12T12:56:50.501Z,78027.84
2023-02-12T12:59:43.153Z,78025.81
2023-02-12T13:02:48.412Z,78033.97
2023-02-12T13:05:50.044Z,78033.97
2023-02-12T13:08:40.982Z,78044.16
2023-02-12T13:11:23.435Z,78046.22
2023-02-12T13:14:02.531Z,78044.16
2023-02-12T13:16:34.803Z,78048.25
2023-02-12T13:19:12.180Z,78054.38
2023-02-12T13:21:46.393Z,78052.31
2023-02-12T13:24:26.809Z,78060.50
2023-02-12T13:26:58.148Z,78060.50
2023-02-12T13:29:30.704Z,78056.41
2023-02-12T13:32:02.732Z,78066.59
2023-02-12T13:34:33.416Z,78068.66
2023-02-12T13:37:03.331Z,78064.56
2023-02-12T13:39:36.303Z,78062.53
2023-02-12T13:42:24.120Z,78068.66
2023-02-12T13:45:02.866Z,78072.72
2023-02-12T13:47:41.523Z,78070.69
2023-02-12T13:50:25.287Z,78066.59
2023-02-12T13:53:02.770Z,78062.53
2023-02-12T13:55:34.786Z,78064.56
2023-02-12T13:58:39.498Z,78052.31
2023-02-12T14:01:12.221Z,78048.25
2023-02-12T14:03:40.459Z,78036.00
2023-02-12T14:06:11.376Z,78036.00
2023-02-12T14:08:42.309Z,78025.81
2023-02-12T14:11:12.195Z,78019.69
2023-02-12T14:13:51.844Z,78017.66
2023-02-12T14:16:38.635Z,78011.53
2023-02-12T14:19:42.820Z,78007.44
2023-02-12T14:22:15.867Z,77999.28
2023-02-12T14:24:54.966Z,77997.25
2023-02-12T14:27:31.455Z,77995.22
2023-02-12T14:30:05.517Z,77993.16
2023-02-12T14:33:13.942Z,77995.22
2023-02-12T14:35:42.830Z,77999.28
2023-02-12T14:39:05.328Z,78001.31
2023-02-12T14:41:38.610Z,77999.28
2023-02-12T14:44:41.984Z,77997.25
2023-02-12T14:47:38.361Z,77991.13
2023-02-12T14:50:16.294Z,78003.38
2023-02-12T14:52:50.180Z,78001.31
2023-02-12T14:55:25.846Z,78005.41
2023-02-12T14:58:00.253Z,78001.31
2023-02-12T15:00:32.410Z,78005.41
2023-02-12T15:03:09.349Z,78005.41
2023-02-12T15:05:43.474Z,78009.50
2023-02-12T15:08:19.635Z,78011.53
2023-02-12T15:10:51.187Z,78027.84
2023-02-12T15:13:25.506Z,78036.00
2023-02-12T15:15:57.765Z,78040.09
2023-02-12T15:18:30.915Z,78044.16
2023-02-12T15:21:07.781Z,78040.09
2023-02-12T15:23:39.840Z,78046.22
2023-02-12T15:26:13.925Z,78060.50
2023-02-12T15:28:43.014Z,78056.41
2023-02-12T15:31:11.546Z,78060.50
2023-02-12T15:33:45.977Z,78064.56
2023-02-12T15:36:20.242Z,78064.56
2023-02-12T15:38:52.378Z,78066.59
2023-02-12T15:41:35.595Z,78068.66
2023-02-12T15:44:18.583Z,78076.81
2023-02-12T15:46:55.260Z,78078.84
2023-02-12T15:49:28.296Z,78078.84
2023-02-12T15:51:58.568Z,78084.97
2023-02-12T15:54:26.771Z,78089.03
2023-02-12T15:56:55.510Z,78101.28
2023-02-12T15:59:25.391Z,78097.22
2023-02-12T16:01:56.406Z,78109.44
2023-02-12T16:04:26.792Z,78107.41
2023-02-12T16:06:54.921Z,78105.38
2023-02-12T16:09:30.312Z,78111.50
2023-02-12T16:12:00.911Z,78121.69
2023-02-12T16:14:33.506Z,78125.78
2023-02-12T16:17:01.309Z,78129.84
2023-02-12T16:19:32.949Z,78131.88
2023-02-12T16:22:07.989Z,78133.94
2023-02-12T16:24:40.289Z,78135.97
2023-02-12T16:27:17.693Z,78144.13
2023-02-12T16:29:47.769Z,78152.28
2023-02-12T16:32:29.193Z,78154.31
2023-02-12T16:35:02.320Z,78158.41
2023-02-12T16:37:44.366Z,78168.59
2023-02-12T16:40:27.847Z,78178.81
2023-02-12T16:43:07.744Z,78191.03
2023-02-12T16:45:40.917Z,78195.13
2023-02-12T16:48:18.068Z,78201.25
2023-02-12T16:50:51.422Z,78209.41
2023-02-12T16:53:47.348Z,78215.53
2023-02-12T16:56:18.854Z,78223.69
2023-02-12T16:58:48.929Z,78235.94
2023-02-12T17:01:20.449Z,78240.00
2023-02-12T17:03:50.580Z,78244.09
2023-02-12T17:06:20.164Z,78244.09
2023-02-12T17:08:48.231Z,78254.28
2023-02-12T17:11:18.080Z,78258.38
2023-02-12T17:13:46.636Z,78258.38
2023-02-12T17:16:25.091Z,78260.41
2023-02-12T17:18:57.381Z,78262.44
2023-02-12T17:21:27.812Z,78264.50
2023-02-12T17:23:55.631Z,78276.72
2023-02-12T17:26:25.785Z,78274.69
2023-02-12T17:28:53.636Z,78278.78
2023-02-12T17:31:21.652Z,78278.78
2023-02-12T17:33:49.430Z,78256.31
2023-02-12T17:36:17.318Z,78256.31
2023-02-12T17:38:45.233Z,78268.56
2023-02-12T17:41:13.445Z,78262.44
2023-02-12T17:43:42.591Z,78272.66
2023-02-12T17:46:11.524Z,78268.56
2023-02-12T17:48:40.416Z,78264.50
2023-02-12T17:51:09.832Z,78264.50
2023-02-12T17:53:37.542Z,78272.66
2023-02-12T17:56:06.069Z,78272.66
2023-02-12T17:58:33.825Z,78284.88
2023-02-12T18:01:07.172Z,78284.88
2023-02-12T18:03:35.465Z,78284.88
2023-02-12T18:06:03.502Z,78280.81
2023-02-12T18:08:32.243Z,78282.84
2023-02-12T18:11:00.215Z,78280.81
2023-02-12T18:13:29.328Z,78276.72
2023-02-12T18:15:57.109Z,78284.88
2023-02-12T18:18:26.272Z,78276.72
2023-02-12T18:20:54.086Z,78293.06
2023-02-12T18:23:21.891Z,78303.25
2023-02-12T18:25:49.660Z,78299.16
2023-02-12T18:28:17.442Z,78301.22
2023-02-12T18:30:45.325Z,78313.44
2023-02-12T18:33:13.858Z,78321.63
2023-02-12T18:35:43.125Z,78325.69
2023-02-12T18:38:11.650Z,78333.84
2023-02-12T18:40:41.161Z,78333.84
2023-02-12T18:43:08.910Z,78321.63
2023-02-12T18:45:39.569Z,78313.44
2023-02-12T18:48:09.204Z,78299.16
2023-02-12T18:50:37.518Z,78276.72
2023-02-12T18:53:07.252Z,78280.81
2023-02-12T18:55:35.094Z,78276.72
2023-02-12T18:58:02.854Z,78252.25
2023-02-12T19:00:30.696Z,78262.44
2023-02-12T19:02:58.516Z,78276.72
2023-02-12T19:05:26.790Z,78288.97
2023-02-12T19:07:55.151Z,78297.13
2023-02-12T19:10:24.317Z,78303.25
2023-02-12T19:12:52.449Z,78307.34
2023-02-12T19:15:20.512Z,78315.50
2023-02-12T19:17:48.329Z,78311.41
2023-02-12T19:20:16.868Z,78297.13
2023-02-12T19:22:46.423Z,78303.25
2023-02-12T19:25:14.424Z,78297.13
2023-02-12T19:27:44.412Z,78313.44
2023-02-12T19:30:13.010Z,78315.50
2023-02-12T19:32:40.855Z,78317.53
2023-02-12T19:35:09.521Z,78321.63
2023-02-12T19:37:37.309Z,78323.66
2023-02-12T19:40:05.404Z,78329.78
2023-02-12T19:42:33.835Z,78325.69
2023-02-12T19:45:02.927Z,78329.78
2023-02-12T19:47:30.730Z,78335.91
2023-02-12T19:49:58.511Z,78337.94
2023-02-12T19:52:26.249Z,78342.00
2023-02-12T19:54:54.198Z,78335.91
2023-02-12T19:57:21.963Z,78346.09
2023-02-12T19:59:50.311Z,78342.00
2023-02-12T20:02:19.498Z,78346.09
2023-02-12T20:04:47.337Z,78350.19
2023-02-12T20:07:15.167Z,78350.19
2023-02-12T20:09:43.006Z,78348.13
2023-02-12T20:12:10.772Z,78348.13
2023-02-12T20:14:38.496Z,78342.00
2023-02-12T20:17:06.719Z,78346.09
2023-02-12T20:19:36.168Z,78346.09
2023-02-12T20:22:04.625Z,78354.25
2023-02-12T20:24:34.367Z,78362.41
2023-02-12T20:27:03.265Z,78366.50
2023-02-12T20:29:31.387Z,78366.50
2023-02-12T20:31:59.402Z,78370.56
2023-02-12T20:34:27.231Z,78376.69
2023-02-12T20:36:56.320Z,78380.78
2023-02-12T20:39:24.442Z,78390.97
2023-02-12T20:41:52.202Z,78395.06
2023-02-12T20:44:21.616Z,78393.03
2023-02-12T20:46:55.736Z,78395.06
2023-02-12T20:49:25.205Z,78399.13
2023-02-12T20:51:53.374Z,78399.13
2023-02-12T20:54:22.509Z,78403.22
2023-02-12T20:56:51.501Z,78403.22
2023-02-12T20:59:20.265Z,78399.13
2023-02-12T21:01:48.231Z,78397.09
2023-02-12T21:04:19.978Z,78399.13
2023-02-12T21:06:48.376Z,78407.28
2023-02-12T21:09:16.731Z,78407.28
2023-02-12T21:11:46.202Z,78403.22
2023-02-12T21:14:24.157Z,78409.34
2023-02-12T21:16:53.404Z,78411.38
2023-02-12T21:19:21.347Z,78411.38
2023-02-12T21:21:49.185Z,78405.25
2023-02-12T21:24:18.483Z,78411.38
2023-02-12T21:26:47.624Z,78405.25
2023-02-12T21:29:15.591Z,78405.25
2023-02-12T21:31:46.588Z,78403.22
2023-02-12T21:34:16.702Z,78399.13
2023-02-12T21:36:46.356Z,78403.22
2023-02-12T21:39:15.903Z,78403.22
2023-02-12T21:41:44.393Z,78407.28
2023-02-12T21:44:15.495Z,78407.28
2023-02-12T21:46:43.530Z,78411.38
2023-02-12T21:49:12.829Z,78411.38
2023-02-12T21:51:43.189Z,78407.28
2023-02-12T21:54:13.466Z,78407.28
2023-02-12T21:56:45.260Z,78403.22
2023-02-12T21:59:15.275Z,78407.28
2023-02-12T22:01:45.937Z,78409.34
2023-02-12T22:04:14.009Z,78407.28
2023-02-12T22:06:44.542Z,78411.38
2023-02-12T22:09:13.784Z,78413.41
2023-02-12T22:11:42.778Z,78413.41
2023-02-12T22:14:15.691Z,78415.47
2023-02-12T22:16:43.842Z,78411.38
2023-02-12T22:19:11.710Z,78415.47
2023-02-12T22:21:41.360Z,78431.78
2023-02-12T22:24:12.777Z,78429.75
2023-02-12T22:26:40.563Z,78427.69
2023-02-12T22:29:10.608Z,78423.63
2023-02-12T22:31:41.604Z,78425.66
2023-02-12T22:34:12.784Z,78423.63
2023-02-12T22:36:41.358Z,78419.53
2023-02-12T22:39:09.928Z,78415.47
2023-02-12T22:41:37.951Z,78409.34
2023-02-12T22:44:06.330Z,78411.38
2023-02-12T22:46:36.065Z,78411.38
2023-02-12T22:49:05.494Z,78407.28
2023-02-12T22:51:35.270Z,78419.53
2023-02-12T22:54:03.639Z,78419.53
2023-02-12T22:56:31.443Z,78431.78
2023-02-12T22:59:02.464Z,78427.69
2023-02-12T23:01:31.281Z,78435.88
2023-02-12T23:03:59.149Z,78433.81
2023-02-12T23:06:29.660Z,78431.78
2023-02-12T23:09:00.088Z,78437.91
2023-02-12T23:11:29.742Z,78439.94
2023-02-12T23:13:58.251Z,78454.22
2023-02-12T23:16:26.211Z,78448.09
2023-02-12T23:18:56.426Z,78437.91
2023-02-12T23:21:24.738Z,78439.94
2023-02-12T23:23:54.097Z,78441.97
2023-02-12T23:26:21.965Z,78439.94
2023-02-12T23:28:49.874Z,78448.09
2023-02-12T23:31:18.261Z,78448.09
2023-02-12T23:33:46.093Z,78452.19
2023-02-12T23:36:14.029Z,78452.19
2023-02-12T23:38:41.789Z,78456.25
2023-02-12T23:41:11.030Z,78460.34
2023-02-12T23:43:38.838Z,78470.53
2023-02-12T23:46:06.898Z,78480.75
2023-02-12T23:48:34.679Z,78484.81
2023-02-12T23:51:02.490Z,78495.03
2023-02-12T23:53:30.258Z,78505.22
2023-02-12T23:55:58.043Z,78507.28
2023-02-12T23:58:27.375Z,78513.38
